Williston, North Dakota
Current Conditions -  °F | °C
As of 11:52 AM on Sunday 25 Jan 2015 (Local Time) from KISN Reporting Station
Broken Clouds Broken Clouds  
Wind Chill: 31°   Ceiling: 11000
Heat Index: 36°   Visibility: 10mi
Dew Point: 30°   Wind: 6mph
Humidity: 79%   Direction: 210°SSW
Pressure: 29.95"   Gusts: NA
Location:  48.15°N, 103.62°W
Report Text: KISN 251752Z AUTO 21005KT 10SM BKN110 02/M01 A2995 RMK AO2 SLP163 T00221011 10022 20000 58008
Loading
Personal Weather Stations






























Interactive Weather Map New forecast layout! Learn more

10-Day Weather Forecast

Advertisements
Track Severe Weather on mobile